Terminal Aerodrome Forecast
Issued by NWS

Home | Current Version | Previous Version | Text Only | Print | Product List | Glossary On
Versions: 1 2 3 4 5 6 7 8 9 10 11 12 13 14 15 16 17 18 19 20 21 22
000
FTPQ31 PGUM 221700
TAFPQ
TAF

PKWA 221721Z 2218/2318 06022G28KT P6SM VCSH SCT017 SCT040 BKN120
      TEMPO 2218/2221 4SM -SHRA SCT015 BKN025=

USA.gov is the U.S. government's official web portal to all federal, state and local government web resources and services.